sensor_id;sensor_type;location;lat;lon;timestamp;pressure;altitude;pressure_sealevel;temperature;humidity
76553;BME280;65395;53.168;18.156;2023-07-02T00:02:18;99663.30;;;19.21;61.64
76553;BME280;65395;53.168;18.156;2023-07-02T00:04:45;99664.55;;;19.23;61.58
76553;BME280;65395;53.168;18.156;2023-07-02T00:07:12;99665.84;;;19.23;61.50
76553;BME280;65395;53.168;18.156;2023-07-02T00:09:39;99666.16;;;19.24;61.55
76553;BME280;65395;53.168;18.156;2023-07-02T00:12:07;99657.23;;;19.24;61.50
76553;BME280;65395;53.168;18.156;2023-07-02T00:14:34;99654.86;;;19.24;61.53
76553;BME280;65395;53.168;18.156;2023-07-02T00:17:00;99656.85;;;19.24;61.65
76553;BME280;65395;53.168;18.156;2023-07-02T00:19:27;99662.27;;;19.24;61.54
76553;BME280;65395;53.168;18.156;2023-07-02T00:21:54;99670.95;;;19.22;61.60
76553;BME280;65395;53.168;18.156;2023-07-02T00:24:21;99671.17;;;19.21;61.66
76553;BME280;65395;53.168;18.156;2023-07-02T00:26:48;99674.20;;;19.18;61.70
76553;BME280;65395;53.168;18.156;2023-07-02T00:29:15;99672.80;;;19.17;61.79
76553;BME280;65395;53.168;18.156;2023-07-02T00:31:42;99668.52;;;19.15;61.77
76553;BME280;65395;53.168;18.156;2023-07-02T00:34:08;99664.61;;;19.15;61.80
76553;BME280;65395;53.168;18.156;2023-07-02T00:36:35;99664.14;;;19.14;61.86
76553;BME280;65395;53.168;18.156;2023-07-02T00:39:02;99664.52;;;19.13;61.91
76553;BME280;65395;53.168;18.156;2023-07-02T00:41:29;99663.13;;;19.11;61.85
76553;BME280;65395;53.168;18.156;2023-07-02T00:43:57;99658.15;;;19.10;61.94
76553;BME280;65395;53.168;18.156;2023-07-02T00:46:24;99661.51;;;19.10;62.02
76553;BME280;65395;53.168;18.156;2023-07-02T00:48:54;99660.26;;;19.07;62.14
76553;BME280;65395;53.168;18.156;2023-07-02T00:51:24;99654.59;;;19.06;62.10
76553;BME280;65395;53.168;18.156;2023-07-02T00:53:53;99650.52;;;19.02;62.15
76553;BME280;65395;53.168;18.156;2023-07-02T00:56:22;99649.33;;;18.99;62.18
76553;BME280;65395;53.168;18.156;2023-07-02T00:58:52;99647.17;;;18.98;62.27
76553;BME280;65395;53.168;18.156;2023-07-02T01:01:21;99643.05;;;18.97;62.33
76553;BME280;65395;53.168;18.156;2023-07-02T01:03:59;99640.83;;;18.95;62.41
76553;BME280;65395;53.168;18.156;2023-07-02T01:06:28;99639.66;;;18.94;62.53
76553;BME280;65395;53.168;18.156;2023-07-02T01:08:59;99634.98;;;18.91;62.67
76553;BME280;65395;53.168;18.156;2023-07-02T01:11:30;99631.27;;;18.88;62.79
76553;BME280;65395;53.168;18.156;2023-07-02T01:14:02;99633.52;;;18.85;62.92
76553;BME280;65395;53.168;18.156;2023-07-02T01:16:30;99632.73;;;18.82;63.02
76553;BME280;65395;53.168;18.156;2023-07-02T01:19:02;99632.39;;;18.79;63.20
76553;BME280;65395;53.168;18.156;2023-07-02T01:21:32;99630.37;;;18.76;63.32
76553;BME280;65395;53.168;18.156;2023-07-02T01:24:01;99635.89;;;18.72;63.53
76553;BME280;65395;53.168;18.156;2023-07-02T01:26:30;99632.52;;;18.70;63.67
76553;BME280;65395;53.168;18.156;2023-07-02T01:28:57;99630.65;;;18.67;63.66
76553;BME280;65395;53.168;18.156;2023-07-02T01:31:24;99629.33;;;18.66;63.79
76553;BME280;65395;53.168;18.156;2023-07-02T01:33:51;99629.75;;;18.63;64.07
76553;BME280;65395;53.168;18.156;2023-07-02T01:36:19;99629.04;;;18.60;64.16
76553;BME280;65395;53.168;18.156;2023-07-02T01:38:46;99625.65;;;18.58;64.34
76553;BME280;65395;53.168;18.156;2023-07-02T01:41:12;99621.25;;;18.55;64.33
76553;BME280;65395;53.168;18.156;2023-07-02T01:43:39;99620.62;;;18.53;64.45
76553;BME280;65395;53.168;18.156;2023-07-02T01:46:05;99624.95;;;18.51;65.09
76553;BME280;65395;53.168;18.156;2023-07-02T01:48:32;99625.57;;;18.46;65.39
76553;BME280;65395;53.168;18.156;2023-07-02T01:50:59;99622.73;;;18.42;65.43
76553;BME280;65395;53.168;18.156;2023-07-02T01:53:25;99622.08;;;18.39;65.47
76553;BME280;65395;53.168;18.156;2023-07-02T01:55:52;99623.96;;;18.36;66.10
76553;BME280;65395;53.168;18.156;2023-07-02T01:58:18;99633.19;;;18.31;67.23
76553;BME280;65395;53.168;18.156;2023-07-02T02:00:47;99635.27;;;18.21;68.79
76553;BME280;65395;53.168;18.156;2023-07-02T02:03:14;99628.01;;;18.09;69.00
76553;BME280;65395;53.168;18.156;2023-07-02T02:05:41;99624.40;;;17.98;69.43
76553;BME280;65395;53.168;18.156;2023-07-02T02:08:07;99618.05;;;17.86;69.96
76553;BME280;65395;53.168;18.156;2023-07-02T02:10:34;99610.74;;;17.76;69.81
76553;BME280;65395;53.168;18.156;2023-07-02T02:13:01;99611.80;;;17.71;69.76
76553;BME280;65395;53.168;18.156;2023-07-02T02:15:28;99613.20;;;17.68;69.61
76553;BME280;65395;53.168;18.156;2023-07-02T02:17:54;99605.55;;;17.66;69.73
76553;BME280;65395;53.168;18.156;2023-07-02T02:20:21;99603.59;;;17.63;69.84
76553;BME280;65395;53.168;18.156;2023-07-02T02:22:48;99603.27;;;17.61;69.96
76553;BME280;65395;53.168;18.156;2023-07-02T02:25:14;99601.73;;;17.60;70.02
76553;BME280;65395;53.168;18.156;2023-07-02T02:27:41;99601.14;;;17.57;69.91
76553;BME280;65395;53.168;18.156;2023-07-02T02:30:10;99602.29;;;17.57;70.01
76553;BME280;65395;53.168;18.156;2023-07-02T02:32:38;99604.27;;;17.57;70.19
76553;BME280;65395;53.168;18.156;2023-07-02T02:35:06;99602.38;;;17.59;70.31
76553;BME280;65395;53.168;18.156;2023-07-02T02:37:37;99600.52;;;17.61;70.41
76553;BME280;65395;53.168;18.156;2023-07-02T02:40:07;99599.42;;;17.63;70.50
76553;BME280;65395;53.168;18.156;2023-07-02T02:42:36;99606.44;;;17.65;70.56
76553;BME280;65395;53.168;18.156;2023-07-02T02:45:03;99611.20;;;17.67;70.70
76553;BME280;65395;53.168;18.156;2023-07-02T02:47:30;99611.84;;;17.69;70.87
76553;BME280;65395;53.168;18.156;2023-07-02T02:49:58;99611.71;;;17.70;71.00
76553;BME280;65395;53.168;18.156;2023-07-02T02:52:25;99606.02;;;17.71;71.29
76553;BME280;65395;53.168;18.156;2023-07-02T02:54:52;99610.52;;;17.72;71.93
76553;BME280;65395;53.168;18.156;2023-07-02T02:57:20;99602.02;;;17.69;72.34
76553;BME280;65395;53.168;18.156;2023-07-02T02:59:47;99598.92;;;17.66;72.77
76553;BME280;65395;53.168;18.156;2023-07-02T03:02:14;99602.50;;;17.60;72.77
76553;BME280;65395;53.168;18.156;2023-07-02T03:04:40;99597.34;;;17.57;72.95
76553;BME280;65395;53.168;18.156;2023-07-02T03:07:10;99594.03;;;17.55;73.02
76553;BME280;65395;53.168;18.156;2023-07-02T03:09:37;99598.11;;;17.53;73.28
76553;BME280;65395;53.168;18.156;2023-07-02T03:12:05;99598.17;;;17.52;73.44
76553;BME280;65395;53.168;18.156;2023-07-02T03:14:32;99601.13;;;17.50;73.67
76553;BME280;65395;53.168;18.156;2023-07-02T03:16:59;99596.27;;;17.51;73.99
76553;BME280;65395;53.168;18.156;2023-07-02T03:19:26;99594.35;;;17.51;74.20
76553;BME280;65395;53.168;18.156;2023-07-02T03:21:52;99596.18;;;17.51;74.39
76553;BME280;65395;53.168;18.156;2023-07-02T03:24:19;99595.05;;;17.52;74.63
76553;BME280;65395;53.168;18.156;2023-07-02T03:26:46;99598.54;;;17.50;74.80
76553;BME280;65395;53.168;18.156;2023-07-02T03:29:13;99594.67;;;17.52;74.61
76553;BME280;65395;53.168;18.156;2023-07-02T03:31:40;99597.91;;;17.55;74.82
76553;BME280;65395;53.168;18.156;2023-07-02T03:34:09;99591.63;;;17.58;74.97
76553;BME280;65395;53.168;18.156;2023-07-02T03:36:37;99589.48;;;17.61;75.02
76553;BME280;65395;53.168;18.156;2023-07-02T03:39:04;99592.21;;;17.66;74.91
76553;BME280;65395;53.168;18.156;2023-07-02T03:41:31;99591.06;;;17.70;74.86
76553;BME280;65395;53.168;18.156;2023-07-02T03:43:58;99589.13;;;17.73;74.92
76553;BME280;65395;53.168;18.156;2023-07-02T03:46:24;99585.98;;;17.76;74.96
76553;BME280;65395;53.168;18.156;2023-07-02T03:48:51;99590.05;;;17.77;75.11
76553;BME280;65395;53.168;18.156;2023-07-02T03:51:17;99586.99;;;17.77;75.06
76553;BME280;65395;53.168;18.156;2023-07-02T03:53:44;99595.55;;;17.78;75.24
76553;BME280;65395;53.168;18.156;2023-07-02T03:56:11;99594.67;;;17.81;74.96
76553;BME280;65395;53.168;18.156;2023-07-02T03:58:39;99593.96;;;17.85;74.98
76553;BME280;65395;53.168;18.156;2023-07-02T04:01:06;99597.52;;;17.89;74.85
76553;BME280;65395;53.168;18.156;2023-07-02T04:03:33;99597.33;;;17.96;74.95
76553;BME280;65395;53.168;18.156;2023-07-02T04:06:00;99597.86;;;18.00;74.79
76553;BME280;65395;53.168;18.156;2023-07-02T04:08:27;99598.41;;;18.07;74.64
76553;BME280;65395;53.168;18.156;2023-07-02T04:10:54;99593.07;;;18.13;74.69
76553;BME280;65395;53.168;18.156;2023-07-02T04:13:21;99592.58;;;18.15;74.50
76553;BME280;65395;53.168;18.156;2023-07-02T04:15:48;99594.63;;;18.16;74.66
76553;BME280;65395;53.168;18.156;2023-07-02T04:18:14;99590.95;;;18.13;74.36
76553;BME280;65395;53.168;18.156;2023-07-02T04:20:41;99589.45;;;18.16;74.25
76553;BME280;65395;53.168;18.156;2023-07-02T04:23:08;99587.84;;;18.19;74.14
76553;BME280;65395;53.168;18.156;2023-07-02T04:25:35;99590.20;;;18.25;74.06
76553;BME280;65395;53.168;18.156;2023-07-02T04:28:01;99589.83;;;18.32;73.88
76553;BME280;65395;53.168;18.156;2023-07-02T04:30:28;99587.51;;;18.40;73.56
76553;BME280;65395;53.168;18.156;2023-07-02T04:32:54;99586.11;;;18.49;73.44
76553;BME280;65395;53.168;18.156;2023-07-02T04:35:21;99593.12;;;18.55;73.22
76553;BME280;65395;53.168;18.156;2023-07-02T04:37:48;99590.11;;;18.58;73.12
76553;BME280;65395;53.168;18.156;2023-07-02T04:40:15;99592.52;;;18.61;72.98
76553;BME280;65395;53.168;18.156;2023-07-02T04:42:42;99593.83;;;18.62;72.92
76553;BME280;65395;53.168;18.156;2023-07-02T04:45:14;99590.48;;;18.65;72.75
76553;BME280;65395;53.168;18.156;2023-07-02T04:47:43;99594.50;;;18.69;72.88
76553;BME280;65395;53.168;18.156;2023-07-02T04:50:10;99595.36;;;18.70;72.92
76553;BME280;65395;53.168;18.156;2023-07-02T04:52:38;99602.78;;;18.72;72.86
76553;BME280;65395;53.168;18.156;2023-07-02T04:55:06;99603.84;;;18.71;72.69
76553;BME280;65395;53.168;18.156;2023-07-02T04:57:32;99603.41;;;18.67;72.67
76553;BME280;65395;53.168;18.156;2023-07-02T04:59:59;99609.77;;;18.63;72.79
76553;BME280;65395;53.168;18.156;2023-07-02T05:02:26;99607.35;;;18.58;73.04
76553;BME280;65395;53.168;18.156;2023-07-02T05:04:53;99604.63;;;18.54;73.16
76553;BME280;65395;53.168;18.156;2023-07-02T05:07:19;99605.66;;;18.52;73.47
76553;BME280;65395;53.168;18.156;2023-07-02T05:09:46;99616.16;;;18.49;73.84
76553;BME280;65395;53.168;18.156;2023-07-02T05:12:15;99619.93;;;18.42;74.68
76553;BME280;65395;53.168;18.156;2023-07-02T05:14:41;99625.52;;;18.32;75.55
76553;BME280;65395;53.168;18.156;2023-07-02T05:17:08;99625.73;;;18.20;76.40
76553;BME280;65395;53.168;18.156;2023-07-02T05:19:35;99627.63;;;18.09;76.86
76553;BME280;65395;53.168;18.156;2023-07-02T05:22:02;99641.56;;;17.99;77.17
76553;BME280;65395;53.168;18.156;2023-07-02T05:24:29;99647.77;;;17.86;78.84
76553;BME280;65395;53.168;18.156;2023-07-02T05:26:56;99640.34;;;17.75;78.11
76553;BME280;65395;53.168;18.156;2023-07-02T05:29:22;99639.88;;;17.69;78.49
76553;BME280;65395;53.168;18.156;2023-07-02T05:31:49;99636.80;;;17.63;78.00
76553;BME280;65395;53.168;18.156;2023-07-02T05:34:16;99640.81;;;17.61;78.10
76553;BME280;65395;53.168;18.156;2023-07-02T05:36:43;99641.38;;;17.63;78.05
76553;BME280;65395;53.168;18.156;2023-07-02T05:39:09;99642.60;;;17.68;78.21
76553;BME280;65395;53.168;18.156;2023-07-02T05:41:36;99643.20;;;17.72;78.42
76553;BME280;65395;53.168;18.156;2023-07-02T05:44:03;99646.95;;;17.78;78.01
76553;BME280;65395;53.168;18.156;2023-07-02T05:46:29;99648.02;;;17.83;78.23
76553;BME280;65395;53.168;18.156;2023-07-02T05:48:56;99650.35;;;17.86;78.47
76553;BME280;65395;53.168;18.156;2023-07-02T05:51:24;99653.19;;;17.87;78.69
76553;BME280;65395;53.168;18.156;2023-07-02T05:53:51;99652.52;;;17.88;78.30
76553;BME280;65395;53.168;18.156;2023-07-02T05:56:19;99653.95;;;17.97;78.23
76553;BME280;65395;53.168;18.156;2023-07-02T05:58:46;99650.98;;;18.08;77.69
76553;BME280;65395;53.168;18.156;2023-07-02T06:01:13;99656.16;;;18.22;77.33
76553;BME280;65395;53.168;18.156;2023-07-02T06:03:41;99653.91;;;18.35;77.26
76553;BME280;65395;53.168;18.156;2023-07-02T06:06:08;99659.78;;;18.45;77.12
76553;BME280;65395;53.168;18.156;2023-07-02T06:08:35;99665.58;;;18.49;76.97
76553;BME280;65395;53.168;18.156;2023-07-02T06:11:02;99660.08;;;18.50;76.60
76553;BME280;65395;53.168;18.156;2023-07-02T06:13:28;99647.43;;;18.50;76.58
76553;BME280;65395;53.168;18.156;2023-07-02T06:15:55;99643.42;;;18.59;76.27
76553;BME280;65395;53.168;18.156;2023-07-02T06:18:22;99645.39;;;18.70;76.02
76553;BME280;65395;53.168;18.156;2023-07-02T06:20:50;99649.20;;;18.76;75.68
76553;BME280;65395;53.168;18.156;2023-07-02T06:23:17;99654.36;;;18.79;75.27
76553;BME280;65395;53.168;18.156;2023-07-02T06:25:44;99664.33;;;18.83;74.95
76553;BME280;65395;53.168;18.156;2023-07-02T06:28:10;99660.26;;;18.87;75.04
76553;BME280;65395;53.168;18.156;2023-07-02T06:30:37;99665.77;;;18.97;74.76
76553;BME280;65395;53.168;18.156;2023-07-02T06:33:04;99683.21;;;19.00;73.99
76553;BME280;65395;53.168;18.156;2023-07-02T06:35:30;99681.79;;;18.94;73.40
76553;BME280;65395;53.168;18.156;2023-07-02T06:37:57;99682.33;;;18.95;73.24
76553;BME280;65395;53.168;18.156;2023-07-02T06:40:24;99673.10;;;18.96;72.93
76553;BME280;65395;53.168;18.156;2023-07-02T06:42:50;99677.65;;;19.00;72.75
76553;BME280;65395;53.168;18.156;2023-07-02T06:45:17;99668.56;;;19.06;72.81
76553;BME280;65395;53.168;18.156;2023-07-02T06:47:44;99674.09;;;19.17;72.47
76553;BME280;65395;53.168;18.156;2023-07-02T06:50:11;99690.46;;;19.33;70.68
76553;BME280;65395;53.168;18.156;2023-07-02T06:52:37;99683.73;;;19.44;69.98
76553;BME280;65395;53.168;18.156;2023-07-02T06:55:04;99679.77;;;19.52;69.18
76553;BME280;65395;53.168;18.156;2023-07-02T06:57:31;99691.27;;;19.58;67.58
76553;BME280;65395;53.168;18.156;2023-07-02T06:59:58;99700.35;;;19.57;66.04
76553;BME280;65395;53.168;18.156;2023-07-02T07:02:26;99701.70;;;19.61;65.53
76553;BME280;65395;53.168;18.156;2023-07-02T07:04:53;99709.52;;;19.71;64.72
76553;BME280;65395;53.168;18.156;2023-07-02T07:07:20;99694.63;;;19.73;63.90
76553;BME280;65395;53.168;18.156;2023-07-02T07:09:47;99700.91;;;19.75;64.13
76553;BME280;65395;53.168;18.156;2023-07-02T07:12:13;99711.66;;;19.73;63.59
76553;BME280;65395;53.168;18.156;2023-07-02T07:14:40;99709.67;;;19.64;63.89
76553;BME280;65395;53.168;18.156;2023-07-02T07:17:06;99701.89;;;19.65;65.19
76553;BME280;65395;53.168;18.156;2023-07-02T07:19:33;99705.30;;;19.78;65.05
76553;BME280;65395;53.168;18.156;2023-07-02T07:22:00;99711.80;;;19.87;64.50
76553;BME280;65395;53.168;18.156;2023-07-02T07:24:26;99720.14;;;19.88;63.41
76553;BME280;65395;53.168;18.156;2023-07-02T07:26:53;99729.76;;;19.88;63.16
76553;BME280;65395;53.168;18.156;2023-07-02T07:29:21;99728.30;;;19.87;62.39
76553;BME280;65395;53.168;18.156;2023-07-02T07:31:48;99720.93;;;19.84;61.63
76553;BME280;65395;53.168;18.156;2023-07-02T07:34:15;99721.92;;;19.76;61.12
76553;BME280;65395;53.168;18.156;2023-07-02T07:36:41;99728.03;;;19.75;61.58
76553;BME280;65395;53.168;18.156;2023-07-02T07:39:08;99721.16;;;19.74;62.01
76553;BME280;65395;53.168;18.156;2023-07-02T07:41:35;99730.27;;;19.78;62.20
76553;BME280;65395;53.168;18.156;2023-07-02T07:44:01;99724.73;;;19.81;61.55
76553;BME280;65395;53.168;18.156;2023-07-02T07:46:28;99708.49;;;19.86;62.06
76553;BME280;65395;53.168;18.156;2023-07-02T07:48:55;99720.27;;;19.87;60.88
76553;BME280;65395;53.168;18.156;2023-07-02T07:51:21;99731.44;;;19.79;60.90
76553;BME280;65395;53.168;18.156;2023-07-02T07:53:48;99725.90;;;19.75;60.92
76553;BME280;65395;53.168;18.156;2023-07-02T07:56:15;99726.92;;;19.79;61.02
76553;BME280;65395;53.168;18.156;2023-07-02T07:58:41;99728.86;;;19.91;61.13
76553;BME280;65395;53.168;18.156;2023-07-02T08:01:08;99735.10;;;20.04;61.04
76553;BME280;65395;53.168;18.156;2023-07-02T08:03:37;99728.59;;;20.11;60.83
76553;BME280;65395;53.168;18.156;2023-07-02T08:06:04;99736.55;;;20.14;60.79
76553;BME280;65395;53.168;18.156;2023-07-02T08:08:31;99737.45;;;20.19;60.02
76553;BME280;65395;53.168;18.156;2023-07-02T08:10:58;99741.09;;;20.34;58.91
76553;BME280;65395;53.168;18.156;2023-07-02T08:13:24;99737.83;;;20.48;58.02
76553;BME280;65395;53.168;18.156;2023-07-02T08:15:51;99742.11;;;20.59;57.53
76553;BME280;65395;53.168;18.156;2023-07-02T08:18:18;99742.71;;;20.60;56.85
76553;BME280;65395;53.168;18.156;2023-07-02T08:20:44;99743.08;;;20.56;55.56
76553;BME280;65395;53.168;18.156;2023-07-02T08:23:11;99766.15;;;20.31;54.61
76553;BME280;65395;53.168;18.156;2023-07-02T08:25:38;99751.85;;;20.05;54.87
76553;BME280;65395;53.168;18.156;2023-07-02T08:28:05;99762.20;;;19.85;54.08
76553;BME280;65395;53.168;18.156;2023-07-02T08:30:31;99754.02;;;19.67;55.13
76553;BME280;65395;53.168;18.156;2023-07-02T08:32:58;99755.10;;;19.54;55.67
76553;BME280;65395;53.168;18.156;2023-07-02T08:35:24;99751.06;;;19.49;56.58
76553;BME280;65395;53.168;18.156;2023-07-02T08:37:51;99744.73;;;19.49;56.65
76553;BME280;65395;53.168;18.156;2023-07-02T08:40:19;99749.64;;;19.50;55.36
76553;BME280;65395;53.168;18.156;2023-07-02T08:42:46;99744.92;;;19.51;55.51
76553;BME280;65395;53.168;18.156;2023-07-02T08:45:15;99743.79;;;19.54;54.86
76553;BME280;65395;53.168;18.156;2023-07-02T08:47:43;99755.13;;;19.58;54.36
76553;BME280;65395;53.168;18.156;2023-07-02T08:50:12;99756.92;;;19.61;53.83
76553;BME280;65395;53.168;18.156;2023-07-02T08:52:40;99760.34;;;19.65;53.79
76553;BME280;65395;53.168;18.156;2023-07-02T08:55:07;99760.11;;;19.74;52.73
76553;BME280;65395;53.168;18.156;2023-07-02T08:57:35;99756.19;;;19.86;52.84
76553;BME280;65395;53.168;18.156;2023-07-02T09:00:10;99761.45;;;20.01;53.01
76553;BME280;65395;53.168;18.156;2023-07-02T09:02:37;99765.92;;;20.15;51.94
76553;BME280;65395;53.168;18.156;2023-07-02T09:05:04;99777.44;;;20.26;51.57
76553;BME280;65395;53.168;18.156;2023-07-02T09:07:31;99771.08;;;20.34;50.74
76553;BME280;65395;53.168;18.156;2023-07-02T09:09:58;99770.36;;;20.52;51.05
76553;BME280;65395;53.168;18.156;2023-07-02T09:12:28;99774.94;;;20.73;50.24
76553;BME280;65395;53.168;18.156;2023-07-02T09:14:58;99765.91;;;20.88;49.62
76553;BME280;65395;53.168;18.156;2023-07-02T09:17:27;99776.07;;;20.83;49.17
76553;BME280;65395;53.168;18.156;2023-07-02T09:19:55;99766.30;;;20.77;48.52
76553;BME280;65395;53.168;18.156;2023-07-02T09:22:23;99752.04;;;20.83;49.15
76553;BME280;65395;53.168;18.156;2023-07-02T09:24:54;99745.09;;;20.87;49.53
76553;BME280;65395;53.168;18.156;2023-07-02T09:27:21;99764.63;;;20.90;47.58
76553;BME280;65395;53.168;18.156;2023-07-02T09:29:51;99749.77;;;20.87;48.22
76553;BME280;65395;53.168;18.156;2023-07-02T09:32:26;99743.34;;;20.90;48.95
76553;BME280;65395;53.168;18.156;2023-07-02T09:34:54;99745.52;;;20.97;49.24
76553;BME280;65395;53.168;18.156;2023-07-02T09:37:22;99770.17;;;21.09;48.09
76553;BME280;65395;53.168;18.156;2023-07-02T09:39:51;99773.40;;;21.25;47.49
76553;BME280;65395;53.168;18.156;2023-07-02T09:42:18;99776.61;;;21.44;46.20
76553;BME280;65395;53.168;18.156;2023-07-02T09:44:46;99787.09;;;21.62;46.39
76553;BME280;65395;53.168;18.156;2023-07-02T09:47:17;99775.30;;;21.76;45.73
76553;BME280;65395;53.168;18.156;2023-07-02T09:49:50;99774.23;;;21.98;45.50
76553;BME280;65395;53.168;18.156;2023-07-02T09:52:19;99763.48;;;22.12;44.61
76553;BME280;65395;53.168;18.156;2023-07-02T09:54:46;99779.76;;;22.19;44.64
76553;BME280;65395;53.168;18.156;2023-07-02T09:57:13;99753.77;;;22.19;44.67
76553;BME280;65395;53.168;18.156;2023-07-02T09:59:40;99748.16;;;22.22;44.64
76553;BME280;65395;53.168;18.156;2023-07-02T10:02:10;99750.84;;;22.27;44.09
76553;BME280;65395;53.168;18.156;2023-07-02T10:04:41;99750.23;;;22.24;44.25
76553;BME280;65395;53.168;18.156;2023-07-02T10:07:09;99772.62;;;22.26;43.26
76553;BME280;65395;53.168;18.156;2023-07-02T10:09:40;99767.64;;;22.22;43.56
76553;BME280;65395;53.168;18.156;2023-07-02T10:12:17;99776.48;;;22.28;43.04
76553;BME280;65395;53.168;18.156;2023-07-02T10:14:46;99773.62;;;22.43;42.64
76553;BME280;65395;53.168;18.156;2023-07-02T10:17:27;99780.21;;;22.50;42.52
76553;BME280;65395;53.168;18.156;2023-07-02T10:19:56;99780.75;;;22.51;42.34
76553;BME280;65395;53.168;18.156;2023-07-02T10:22:23;99772.08;;;22.69;42.54
76553;BME280;65395;53.168;18.156;2023-07-02T10:24:58;99771.11;;;22.88;40.75
76553;BME280;65395;53.168;18.156;2023-07-02T10:27:37;99785.23;;;22.96;40.48
76553;BME280;65395;53.168;18.156;2023-07-02T10:30:06;99782.77;;;22.94;40.80
76553;BME280;65395;53.168;18.156;2023-07-02T10:32:34;99780.18;;;22.84;40.29
76553;BME280;65395;53.168;18.156;2023-07-02T10:35:02;99777.99;;;22.66;40.22
76553;BME280;65395;53.168;18.156;2023-07-02T10:37:39;99784.59;;;22.44;40.99
76553;BME280;65395;53.168;18.156;2023-07-02T10:40:06;99792.66;;;22.36;40.34
76553;BME280;65395;53.168;18.156;2023-07-02T10:42:51;99788.98;;;22.36;40.12
76553;BME280;65395;53.168;18.156;2023-07-02T10:45:19;99778.77;;;22.42;40.16
76553;BME280;65395;53.168;18.156;2023-07-02T10:47:46;99780.90;;;22.57;40.50
76553;BME280;65395;53.168;18.156;2023-07-02T10:50:19;99785.29;;;22.70;39.46
76553;BME280;65395;53.168;18.156;2023-07-02T10:52:47;99783.66;;;22.72;40.06
76553;BME280;65395;53.168;18.156;2023-07-02T10:55:19;99770.52;;;22.75;39.63
76553;BME280;65395;53.168;18.156;2023-07-02T10:57:47;99764.90;;;22.85;39.86
76553;BME280;65395;53.168;18.156;2023-07-02T11:00:15;99769.38;;;23.03;39.85
76553;BME280;65395;53.168;18.156;2023-07-02T11:02:42;99765.33;;;23.20;39.12
76553;BME280;65395;53.168;18.156;2023-07-02T11:05:09;99765.98;;;23.27;39.33
76553;BME280;65395;53.168;18.156;2023-07-02T11:07:39;99762.51;;;23.32;39.11
76553;BME280;65395;53.168;18.156;2023-07-02T11:10:07;99762.52;;;23.48;39.59
76553;BME280;65395;53.168;18.156;2023-07-02T11:12:35;99770.98;;;23.64;38.41
76553;BME280;65395;53.168;18.156;2023-07-02T11:15:11;99773.50;;;23.69;37.17
76553;BME280;65395;53.168;18.156;2023-07-02T11:17:39;99784.58;;;23.64;36.81
76553;BME280;65395;53.168;18.156;2023-07-02T11:20:08;99789.67;;;23.61;36.57
76553;BME280;65395;53.168;18.156;2023-07-02T11:22:37;99786.84;;;23.74;36.90
76553;BME280;65395;53.168;18.156;2023-07-02T11:25:14;99789.33;;;23.91;36.70
76553;BME280;65395;53.168;18.156;2023-07-02T11:27:42;99787.95;;;24.02;36.28
76553;BME280;65395;53.168;18.156;2023-07-02T11:30:10;99779.05;;;24.11;36.41
76553;BME280;65395;53.168;18.156;2023-07-02T11:32:51;99795.70;;;24.20;36.23
76553;BME280;65395;53.168;18.156;2023-07-02T11:35:18;99798.38;;;24.11;35.72
76553;BME280;65395;53.168;18.156;2023-07-02T11:37:46;99792.67;;;23.98;36.21
76553;BME280;65395;53.168;18.156;2023-07-02T11:40:17;99799.24;;;23.94;36.07
76553;BME280;65395;53.168;18.156;2023-07-02T11:42:44;99784.54;;;23.71;35.54
76553;BME280;65395;53.168;18.156;2023-07-02T11:45:11;99786.88;;;23.50;36.27
76553;BME280;65395;53.168;18.156;2023-07-02T11:47:38;99787.42;;;23.30;36.60
76553;BME280;65395;53.168;18.156;2023-07-02T11:50:05;99776.20;;;23.24;37.52
76553;BME280;65395;53.168;18.156;2023-07-02T11:52:32;99770.19;;;23.34;37.87
76553;BME280;65395;53.168;18.156;2023-07-02T11:54:59;99777.31;;;23.58;37.61
76553;BME280;65395;53.168;18.156;2023-07-02T11:57:26;99778.77;;;23.83;37.54
76553;BME280;65395;53.168;18.156;2023-07-02T11:59:52;99796.46;;;24.08;36.26
76553;BME280;65395;53.168;18.156;2023-07-02T12:02:19;99783.16;;;24.20;35.64
76553;BME280;65395;53.168;18.156;2023-07-02T12:04:46;99787.98;;;24.31;35.32
76553;BME280;65395;53.168;18.156;2023-07-02T12:07:13;99803.30;;;24.40;34.96
76553;BME280;65395;53.168;18.156;2023-07-02T12:09:40;99801.70;;;24.39;34.48
76553;BME280;65395;53.168;18.156;2023-07-02T12:12:07;99793.78;;;24.38;35.09
76553;BME280;65395;53.168;18.156;2023-07-02T12:14:34;99814.43;;;24.27;34.64
76553;BME280;65395;53.168;18.156;2023-07-02T12:17:01;99794.33;;;24.19;34.66
76553;BME280;65395;53.168;18.156;2023-07-02T12:19:28;99804.50;;;24.03;34.97
76553;BME280;65395;53.168;18.156;2023-07-02T12:21:54;99797.33;;;23.92;35.36
76553;BME280;65395;53.168;18.156;2023-07-02T12:24:21;99793.69;;;23.95;35.86
76553;BME280;65395;53.168;18.156;2023-07-02T12:26:47;99792.27;;;24.05;35.63
76553;BME280;65395;53.168;18.156;2023-07-02T12:29:14;99791.80;;;24.06;35.84
76553;BME280;65395;53.168;18.156;2023-07-02T12:31:41;99791.40;;;24.08;36.25
76553;BME280;65395;53.168;18.156;2023-07-02T12:34:07;99798.34;;;24.02;35.98
76553;BME280;65395;53.168;18.156;2023-07-02T12:36:34;99793.31;;;23.82;36.17
76553;BME280;65395;53.168;18.156;2023-07-02T12:39:01;99789.59;;;23.61;36.49
76553;BME280;65395;53.168;18.156;2023-07-02T12:41:28;99793.48;;;23.53;37.13
76553;BME280;65395;53.168;18.156;2023-07-02T12:43:56;99791.80;;;23.52;37.32
76553;BME280;65395;53.168;18.156;2023-07-02T12:46:23;99801.16;;;23.56;37.12
76553;BME280;65395;53.168;18.156;2023-07-02T12:48:50;99806.42;;;23.79;37.29
76553;BME280;65395;53.168;18.156;2023-07-02T12:51:16;99791.90;;;24.12;37.27
76553;BME280;65395;53.168;18.156;2023-07-02T12:53:43;99798.32;;;24.56;37.42